createdAt,value
2024-05-09T00:01:23.990Z,23.46
2024-05-09T00:02:24.128Z,23.46
2024-05-09T00:03:24.029Z,23.45
2024-05-09T00:04:24.070Z,23.45
2024-05-09T00:05:24.113Z,23.45
2024-05-09T00:06:24.073Z,23.45
2024-05-09T00:07:24.126Z,23.45
2024-05-09T00:08:24.257Z,23.45
2024-05-09T00:09:24.241Z,23.45
2024-05-09T00:10:29.328Z,23.45
2024-05-09T00:11:25.393Z,23.45
2024-05-09T00:12:24.383Z,23.44
2024-05-09T00:13:24.342Z,23.45
2024-05-09T00:14:24.396Z,23.44
2024-05-09T00:15:24.359Z,23.45
2024-05-09T00:16:24.458Z,23.45
2024-05-09T00:17:24.592Z,23.45
2024-05-09T00:18:24.600Z,23.45
2024-05-09T00:19:24.474Z,23.44
2024-05-09T00:20:32.320Z,23.45
2024-05-09T00:21:25.456Z,23.45
2024-05-09T00:22:24.459Z,23.45
2024-05-09T00:23:24.517Z,23.44
2024-05-09T00:24:24.479Z,23.44
2024-05-09T00:25:24.487Z,23.44
2024-05-09T00:26:24.581Z,23.44
2024-05-09T00:27:24.495Z,23.45
2024-05-09T00:28:24.509Z,23.45
2024-05-09T00:29:24.653Z,23.44
2024-05-09T00:30:33.139Z,23.44
2024-05-09T00:31:25.549Z,23.44
2024-05-09T00:32:24.684Z,23.44
2024-05-09T00:33:24.818Z,23.43
2024-05-09T00:34:24.805Z,23.44
2024-05-09T00:35:24.758Z,23.43
2024-05-09T00:36:24.643Z,23.44
2024-05-09T00:37:24.635Z,23.44
2024-05-09T00:38:24.758Z,23.44
2024-05-09T00:39:24.644Z,23.43
2024-05-09T00:40:31.228Z,23.44
2024-05-09T00:41:25.737Z,23.43
2024-05-09T00:42:24.690Z,23.44
2024-05-09T00:43:24.708Z,23.43
2024-05-09T00:44:24.854Z,23.43
2024-05-09T00:45:24.746Z,23.44
2024-05-09T00:46:24.749Z,23.43
2024-05-09T00:47:24.998Z,23.43
2024-05-09T00:48:24.886Z,23.43
2024-05-09T00:49:24.917Z,23.43
2024-05-09T00:50:30.025Z,23.43
2024-05-09T00:51:25.825Z,23.43
2024-05-09T00:52:24.805Z,23.43
2024-05-09T00:53:24.871Z,23.43
2024-05-09T00:54:24.803Z,23.43
2024-05-09T00:55:24.810Z,23.43
2024-05-09T00:56:24.935Z,23.42
2024-05-09T00:57:24.849Z,23.42
2024-05-09T00:58:24.865Z,23.42
2024-05-09T00:59:25.065Z,23.43
2024-05-09T01:00:31.330Z,23.42
2024-05-09T01:01:25.960Z,23.42
2024-05-09T01:02:25.057Z,23.42
2024-05-09T01:03:25.111Z,23.42
2024-05-09T01:04:25.010Z,23.41
2024-05-09T01:05:25.034Z,23.42
2024-05-09T01:06:25.006Z,23.42
2024-05-09T01:07:25.057Z,23.42
2024-05-09T01:08:25.084Z,23.41
2024-05-09T01:09:25.067Z,23.41
2024-05-09T01:10:32.279Z,23.42
2024-05-09T01:11:26.174Z,23.41
2024-05-09T01:12:25.298Z,23.42
2024-05-09T01:13:25.158Z,23.41
2024-05-09T01:14:25.228Z,23.42
2024-05-09T01:15:25.143Z,23.41
2024-05-09T01:16:25.171Z,23.41
2024-05-09T01:17:25.283Z,23.41
2024-05-09T01:18:25.303Z,23.41
2024-05-09T01:19:25.371Z,23.41
2024-05-09T01:20:32.159Z,23.41
2024-05-09T01:21:26.315Z,23.40
2024-05-09T01:22:25.260Z,23.40
2024-05-09T01:23:25.301Z,23.41
2024-05-09T01:24:25.254Z,23.40
2024-05-09T01:25:25.269Z,23.41
2024-05-09T01:26:25.319Z,23.40
2024-05-09T01:27:25.290Z,23.40
2024-05-09T01:28:25.304Z,23.40
2024-05-09T01:29:25.416Z,23.41
2024-05-09T01:30:33.340Z,23.40
2024-05-09T01:31:26.460Z,23.39
2024-05-09T01:32:25.605Z,23.40
2024-05-09T01:33:25.539Z,23.40
2024-05-09T01:34:25.394Z,23.39
2024-05-09T01:35:25.588Z,23.40
2024-05-09T01:36:25.429Z,23.40
2024-05-09T01:37:25.458Z,23.39
2024-05-09T01:38:25.474Z,23.39
2024-05-09T01:39:25.454Z,23.39
2024-05-09T01:40:35.413Z,23.39
2024-05-09T01:41:26.578Z,23.39
2024-05-09T01:42:25.494Z,23.39
2024-05-09T01:43:25.517Z,23.39
2024-05-09T01:44:25.564Z,23.39
2024-05-09T01:45:25.563Z,23.39
2024-05-09T01:46:25.565Z,23.39
2024-05-09T01:47:25.753Z,23.39
2024-05-09T01:48:25.675Z,23.38
2024-05-09T01:49:25.722Z,23.39
2024-05-09T01:50:36.999Z,23.39
2024-05-09T01:51:26.652Z,23.38
2024-05-09T01:52:25.665Z,23.39
2024-05-09T01:53:25.740Z,23.39
2024-05-09T01:54:25.689Z,23.38
2024-05-09T01:55:25.703Z,23.38
2024-05-09T01:56:25.776Z,23.38
2024-05-09T01:57:25.731Z,23.39
2024-05-09T01:58:25.744Z,23.38
2024-05-09T01:59:25.950Z,23.38
2024-05-09T02:00:36.335Z,23.38
2024-05-09T02:01:26.950Z,23.38
2024-05-09T02:02:25.909Z,23.38
2024-05-09T02:03:25.948Z,23.38
2024-05-09T02:04:25.994Z,23.39
2024-05-09T02:05:25.947Z,23.38
2024-05-09T02:06:25.900Z,23.37
2024-05-09T02:07:25.909Z,23.38
2024-05-09T02:08:26.014Z,23.38
2024-05-09T02:09:25.945Z,23.38
2024-05-09T02:10:31.972Z,23.38
2024-05-09T02:11:27.098Z,23.37
2024-05-09T02:12:26.091Z,23.37
2024-05-09T02:13:26.017Z,23.36
2024-05-09T02:14:26.185Z,23.37
2024-05-09T02:15:26.044Z,23.37
2024-05-09T02:16:26.058Z,23.38
2024-05-09T02:17:26.247Z,23.37
2024-05-09T02:18:26.185Z,23.37
2024-05-09T02:19:26.144Z,23.37
2024-05-09T02:20:33.431Z,23.37
2024-05-09T02:21:27.127Z,23.36
2024-05-09T02:22:26.143Z,23.36
2024-05-09T02:23:26.205Z,23.36
2024-05-09T02:24:26.160Z,23.37
2024-05-09T02:25:26.166Z,23.37
2024-05-09T02:26:26.241Z,23.37
2024-05-09T02:27:26.212Z,23.37
2024-05-09T02:28:26.201Z,23.37
2024-05-09T02:29:26.316Z,23.37
2024-05-09T02:30:35.926Z,23.37
2024-05-09T02:31:27.240Z,23.37
2024-05-09T02:32:26.391Z,23.37
2024-05-09T02:33:26.497Z,23.37
2024-05-09T02:34:26.393Z,23.37
2024-05-09T02:35:26.473Z,23.37
2024-05-09T02:36:26.311Z,23.37
2024-05-09T02:37:26.319Z,23.36
2024-05-09T02:38:26.386Z,23.36
2024-05-09T02:39:26.352Z,23.36
2024-05-09T02:40:35.069Z,23.35
2024-05-09T02:41:27.458Z,23.35
2024-05-09T02:42:26.377Z,23.35
2024-05-09T02:43:26.399Z,23.37
2024-05-09T02:44:26.503Z,23.37
2024-05-09T02:45:26.415Z,23.35
2024-05-09T02:46:26.432Z,23.36
2024-05-09T02:47:26.576Z,23.35
2024-05-09T02:48:26.645Z,23.35
2024-05-09T02:49:26.633Z,23.36
2024-05-09T02:50:34.137Z,23.36
2024-05-09T02:51:27.493Z,23.35
2024-05-09T02:52:26.515Z,23.35
2024-05-09T02:53:26.573Z,23.35
2024-05-09T02:54:26.543Z,23.35
2024-05-09T02:55:26.566Z,23.36
2024-05-09T02:56:26.636Z,23.35
2024-05-09T02:57:26.585Z,23.36
2024-05-09T02:58:26.615Z,23.36
2024-05-09T02:59:26.684Z,23.35
2024-05-09T03:00:34.994Z,23.35
2024-05-09T03:01:27.706Z,23.35
2024-05-09T03:02:26.753Z,23.35
2024-05-09T03:03:27.138Z,23.35
2024-05-09T03:04:26.720Z,23.35
2024-05-09T03:05:26.732Z,23.35
2024-05-09T03:06:26.704Z,23.35
2024-05-09T03:07:26.714Z,23.35
2024-05-09T03:08:26.780Z,23.35
2024-05-09T03:09:26.747Z,23.34
2024-05-09T03:10:29.040Z,23.35
2024-05-09T03:11:27.897Z,23.34
2024-05-09T03:12:26.859Z,23.35
2024-05-09T03:13:26.809Z,23.34
2024-05-09T03:14:27.007Z,23.35
2024-05-09T03:15:26.839Z,23.35
2024-05-09T03:16:26.863Z,23.34
2024-05-09T03:17:27.031Z,23.34
2024-05-09T03:18:26.966Z,23.34
2024-05-09T03:19:26.947Z,23.34
2024-05-09T03:20:32.637Z,23.34
2024-05-09T03:21:27.931Z,23.34
2024-05-09T03:22:26.939Z,23.34
2024-05-09T03:23:26.986Z,23.33
2024-05-09T03:24:26.967Z,23.34
2024-05-09T03:25:26.985Z,23.34
2024-05-09T03:26:27.038Z,23.34
2024-05-09T03:27:27.027Z,23.34
2024-05-09T03:28:27.029Z,23.34
2024-05-09T03:29:27.190Z,23.34
2024-05-09T03:30:35.783Z,23.34
2024-05-09T03:31:28.127Z,23.33
2024-05-09T03:32:27.168Z,23.33
2024-05-09T03:33:27.359Z,23.33
2024-05-09T03:34:27.139Z,23.33
2024-05-09T03:35:27.221Z,23.33
2024-05-09T03:36:27.130Z,23.33
2024-05-09T03:37:27.125Z,23.34
2024-05-09T03:38:27.164Z,23.33
2024-05-09T03:39:27.141Z,23.33
2024-05-09T03:40:30.816Z,23.33
2024-05-09T03:41:27.185Z,23.33
2024-05-09T03:42:27.186Z,23.32
2024-05-09T03:43:27.189Z,23.32
2024-05-09T03:44:27.242Z,23.33
2024-05-09T03:45:27.222Z,23.33
2024-05-09T03:46:27.240Z,23.32
2024-05-09T03:47:27.340Z,23.32
2024-05-09T03:48:27.399Z,23.32
2024-05-09T03:49:27.377Z,23.32
2024-05-09T03:50:33.692Z,23.32
2024-05-09T03:51:28.291Z,23.32
2024-05-09T03:52:27.297Z,23.32
2024-05-09T03:53:27.350Z,23.32
2024-05-09T03:54:27.335Z,23.32
2024-05-09T03:55:27.362Z,23.33
2024-05-09T03:56:27.413Z,23.32
2024-05-09T03:57:27.383Z,23.33
2024-05-09T03:58:27.389Z,23.32
2024-05-09T03:59:27.490Z,23.33
2024-05-09T04:00:35.201Z,23.33
2024-05-09T04:01:28.480Z,23.31
2024-05-09T04:02:27.585Z,23.33
2024-05-09T04:03:27.768Z,23.32
2024-05-09T04:04:27.516Z,23.32
2024-05-09T04:05:27.579Z,23.31
2024-05-09T04:06:27.486Z,23.32
2024-05-09T04:07:27.518Z,23.32
2024-05-09T04:08:27.635Z,23.32
2024-05-09T04:09:27.519Z,23.32
2024-05-09T04:10:32.757Z,23.32
2024-05-09T04:11:28.644Z,23.31
2024-05-09T04:12:27.603Z,23.32
2024-05-09T04:13:27.570Z,23.32
2024-05-09T04:14:27.766Z,23.31
2024-05-09T04:15:27.622Z,23.31
2024-05-09T04:16:27.625Z,23.32
2024-05-09T04:17:27.850Z,23.31
2024-05-09T04:18:27.774Z,23.31
2024-05-09T04:19:27.831Z,23.31
2024-05-09T04:20:36.642Z,23.31
2024-05-09T04:21:28.687Z,23.30
2024-05-09T04:22:27.709Z,23.31
2024-05-09T04:23:27.834Z,23.31
2024-05-09T04:24:27.743Z,23.31
2024-05-09T04:25:27.750Z,23.31
2024-05-09T04:26:27.811Z,23.31
2024-05-09T04:27:27.777Z,23.32
2024-05-09T04:28:27.782Z,23.31
2024-05-09T04:29:27.858Z,23.31
2024-05-09T04:30:34.995Z,23.32
2024-05-09T04:31:28.842Z,23.31
2024-05-09T04:32:27.998Z,23.31
2024-05-09T04:33:28.004Z,23.31
2024-05-09T04:34:27.963Z,23.31
2024-05-09T04:35:35.252Z,23.29
2024-05-09T04:36:35.172Z,23.31
2024-05-09T04:37:35.181Z,23.31
2024-05-09T04:38:35.261Z,23.31
2024-05-09T04:39:35.187Z,23.31
2024-05-09T04:40:37.015Z,23.31
2024-05-09T04:41:35.368Z,23.31
2024-05-09T04:42:35.382Z,23.32
2024-05-09T04:43:35.423Z,23.32
2024-05-09T04:44:35.500Z,23.32
2024-05-09T04:45:35.876Z,23.32
2024-05-09T04:46:35.530Z,23.32
2024-05-09T04:47:35.857Z,23.32
2024-05-09T04:48:35.728Z,23.32
2024-05-09T04:49:35.850Z,23.32
2024-05-09T04:50:38.644Z,23.32
2024-05-09T04:51:35.767Z,23.32
2024-05-09T04:52:35.771Z,23.32
2024-05-09T04:53:35.807Z,23.33
2024-05-09T04:54:36.718Z,23.32
2024-05-09T04:55:35.773Z,23.33
2024-05-09T04:56:35.813Z,23.33
2024-05-09T04:57:35.748Z,23.33
2024-05-09T04:58:35.744Z,23.33
2024-05-09T04:59:35.815Z,23.33
2024-05-09T05:00:37.901Z,23.33
2024-05-09T05:01:35.790Z,23.33
2024-05-09T05:02:35.785Z,23.33
2024-05-09T05:03:35.890Z,23.33
2024-05-09T05:04:35.751Z,23.34
2024-05-09T05:05:35.742Z,23.33
2024-05-09T05:06:35.729Z,23.33
2024-05-09T05:07:35.716Z,23.34
2024-05-09T05:08:35.751Z,23.34
2024-05-09T05:09:35.710Z,23.34
2024-05-09T05:10:36.891Z,23.34
2024-05-09T05:11:35.730Z,23.34
2024-05-09T05:12:35.697Z,23.34
2024-05-09T05:13:38.630Z,23.33
2024-05-09T05:14:35.707Z,23.33
2024-05-09T05:15:35.655Z,23.34
2024-05-09T05:16:35.633Z,23.35
2024-05-09T05:17:35.830Z,23.33
2024-05-09T05:18:35.703Z,23.33
2024-05-09T05:19:35.802Z,23.33
2024-05-09T05:20:35.719Z,23.34
2024-05-09T05:21:35.614Z,23.33
2024-05-09T05:22:35.822Z,23.34
2024-05-09T05:23:35.726Z,23.34
2024-05-09T05:24:35.609Z,23.34
2024-05-09T05:25:35.575Z,23.34
2024-05-09T05:26:35.595Z,23.34
2024-05-09T05:27:35.567Z,23.34
2024-05-09T05:28:35.559Z,23.34
2024-05-09T05:29:35.720Z,23.34
2024-05-09T05:30:35.845Z,23.35
2024-05-09T05:31:35.708Z,23.34
2024-05-09T05:32:35.848Z,23.35
2024-05-09T05:33:35.810Z,23.34
2024-05-09T05:34:35.807Z,23.35
2024-05-09T05:35:35.904Z,23.36
2024-05-09T05:36:35.912Z,23.36
2024-05-09T05:37:35.969Z,23.36
2024-05-09T05:38:36.044Z,23.36
2024-05-09T05:39:36.092Z,23.36
2024-05-09T05:40:38.155Z,23.36
2024-05-09T05:41:36.179Z,23.36
2024-05-09T05:42:36.128Z,23.36
2024-05-09T05:43:36.119Z,23.36
2024-05-09T05:44:36.135Z,23.37
2024-05-09T05:45:36.081Z,23.37
2024-05-09T05:46:36.073Z,23.36
2024-05-09T05:47:36.123Z,23.37
2024-05-09T05:48:36.120Z,23.37
2024-05-09T05:49:36.077Z,23.37
2024-05-09T05:50:37.965Z,23.37
2024-05-09T05:51:36.013Z,23.37
2024-05-09T05:52:35.997Z,23.37
2024-05-09T05:53:36.065Z,23.37
2024-05-09T05:54:35.983Z,23.38
2024-05-09T05:55:35.975Z,23.38
2024-05-09T05:56:36.025Z,23.38
2024-05-09T05:57:35.977Z,23.39
2024-05-09T05:58:35.974Z,23.39
2024-05-09T05:59:36.042Z,23.39
2024-05-09T06:00:39.037Z,23.39
2024-05-09T06:01:36.080Z,23.39
2024-05-09T06:02:36.049Z,23.39
2024-05-09T06:03:36.051Z,23.39
2024-05-09T06:04:35.987Z,23.40
2024-05-09T06:05:36.046Z,23.40
2024-05-09T06:06:35.961Z,23.40
2024-05-09T06:07:35.956Z,23.40
2024-05-09T06:08:35.981Z,23.41
2024-05-09T06:09:35.962Z,23.42
2024-05-09T06:10:39.277Z,23.42
2024-05-09T06:11:36.141Z,23.42
2024-05-09T06:12:35.941Z,23.42
2024-05-09T06:13:35.940Z,23.42
2024-05-09T06:14:35.995Z,23.41
2024-05-09T06:15:35.939Z,23.42
2024-05-09T06:16:35.950Z,23.42
2024-05-09T06:17:36.132Z,23.42
2024-05-09T06:18:36.345Z,23.42
2024-05-09T06:19:36.034Z,23.42
2024-05-09T06:20:38.009Z,23.43
2024-05-09T06:21:36.150Z,23.43
2024-05-09T06:22:36.186Z,23.43
2024-05-09T06:23:36.427Z,23.43
2024-05-09T06:24:36.279Z,23.43
2024-05-09T06:25:36.627Z,23.44
2024-05-09T06:26:36.420Z,23.45
2024-05-09T06:27:36.444Z,23.44
2024-05-09T06:28:36.503Z,23.45
2024-05-09T06:29:36.558Z,23.45
2024-05-09T06:30:39.801Z,23.46
2024-05-09T06:31:37.612Z,23.46
2024-05-09T06:32:36.701Z,23.47
2024-05-09T06:33:36.999Z,23.48
2024-05-09T06:34:36.658Z,23.47
2024-05-09T06:35:37.078Z,23.48
2024-05-09T06:36:36.592Z,23.49
2024-05-09T06:37:36.598Z,23.49
2024-05-09T06:38:36.658Z,23.50
2024-05-09T06:39:36.566Z,23.50
2024-05-09T06:40:39.172Z,23.50
2024-05-09T06:41:36.616Z,23.49
2024-05-09T06:42:36.555Z,23.50
2024-05-09T06:43:36.561Z,23.50
2024-05-09T06:44:36.598Z,23.51
2024-05-09T06:45:36.552Z,23.51
2024-05-09T06:46:36.555Z,23.51
2024-05-09T06:47:36.696Z,23.52
2024-05-09T06:48:36.637Z,23.52
2024-05-09T06:49:36.545Z,23.52
2024-05-09T06:50:38.343Z,23.52
2024-05-09T06:51:36.512Z,23.53
2024-05-09T06:52:36.507Z,23.53
2024-05-09T06:53:36.608Z,23.53
2024-05-09T06:54:36.507Z,23.53
2024-05-09T06:55:36.518Z,23.53
2024-05-09T06:56:36.515Z,23.53
2024-05-09T06:57:37.751Z,23.53
2024-05-09T06:58:36.660Z,23.53
2024-05-09T06:59:36.712Z,23.53
2024-05-09T07:00:39.674Z,23.54
2024-05-09T07:01:36.747Z,23.53
2024-05-09T07:02:36.773Z,23.54
2024-05-09T07:03:36.738Z,23.54
2024-05-09T07:04:36.796Z,23.54
2024-05-09T07:05:36.702Z,23.54
2024-05-09T07:06:36.672Z,23.55
2024-05-09T07:07:36.660Z,23.55
2024-05-09T07:08:36.750Z,23.56
2024-05-09T07:09:36.664Z,23.57
2024-05-09T07:10:37.206Z,23.57
2024-05-09T07:11:36.673Z,23.58
2024-05-09T07:12:36.618Z,23.58
2024-05-09T07:13:36.618Z,23.59
2024-05-09T07:14:38.444Z,23.61
2024-05-09T07:15:36.613Z,23.63
2024-05-09T07:16:36.595Z,23.64
2024-05-09T07:17:36.731Z,23.64
2024-05-09T07:18:36.898Z,23.65
2024-05-09T07:19:36.883Z,23.65
2024-05-09T07:20:36.750Z,23.66
2024-05-09T07:21:36.774Z,23.68
2024-05-09T07:22:36.784Z,23.69
2024-05-09T07:23:37.587Z,23.70
2024-05-09T07:24:36.861Z,23.71
2024-05-09T07:25:36.955Z,23.71
2024-05-09T07:26:37.063Z,23.72
2024-05-09T07:27:36.991Z,23.71
2024-05-09T07:28:37.023Z,23.70
2024-05-09T07:29:38.714Z,23.70
2024-05-09T07:30:37.093Z,23.69
2024-05-09T07:31:37.137Z,23.69
2024-05-09T07:32:37.284Z,23.69
2024-05-09T07:33:37.289Z,23.69
2024-05-09T07:34:37.281Z,23.70
2024-05-09T07:35:37.533Z,23.72
2024-05-09T07:36:37.322Z,23.73
2024-05-09T07:37:37.377Z,23.74
2024-05-09T07:38:37.673Z,23.76
2024-05-09T07:39:37.428Z,23.79
2024-05-09T07:40:37.451Z,23.85
2024-05-09T07:41:37.688Z,23.99
2024-05-09T07:42:37.520Z,24.09
2024-05-09T07:43:37.526Z,24.11
2024-05-09T07:44:37.633Z,24.10
2024-05-09T07:45:48.364Z,24.17
2024-05-09T07:47:47.335Z,24.27
2024-05-09T07:48:58.083Z,24.39
2024-05-09T07:53:33.818Z,24.74
2024-05-09T07:53:43.861Z,24.70
2024-05-09T07:54:38.573Z,24.65
2024-05-09T07:55:37.558Z,24.59
2024-05-09T07:56:37.504Z,24.55
2024-05-09T07:57:37.358Z,24.49
2024-05-09T07:58:37.292Z,24.45
2024-05-09T07:59:38.001Z,24.40
2024-05-09T08:00:37.358Z,24.36
2024-05-09T08:01:37.421Z,24.33
2024-05-09T08:02:37.271Z,24.34
2024-05-09T08:03:37.374Z,24.32
2024-05-09T08:04:37.245Z,24.31
2024-05-09T08:05:37.230Z,24.29
2024-05-09T08:06:37.136Z,24.28
2024-05-09T08:07:37.094Z,24.27
2024-05-09T08:08:37.088Z,24.28
2024-05-09T08:09:38.409Z,24.27
2024-05-09T08:10:37.113Z,24.25
2024-05-09T08:11:37.064Z,24.24
2024-05-09T08:12:37.038Z,24.23
2024-05-09T08:13:37.054Z,24.22
2024-05-09T08:14:36.983Z,24.20
2024-05-09T08:15:37.031Z,24.19
2024-05-09T08:16:36.970Z,24.21
2024-05-09T08:17:37.076Z,24.24
2024-05-09T08:18:37.139Z,24.34
2024-05-09T08:19:36.959Z,24.46
2024-05-09T08:20:36.907Z,24.56
2024-05-09T08:21:36.912Z,24.56
2024-05-09T08:22:36.863Z,24.60
2024-05-09T08:23:36.875Z,24.60
2024-05-09T08:24:36.871Z,24.63
2024-05-09T08:25:36.803Z,24.71
2024-05-09T08:26:36.790Z,24.76
2024-05-09T08:27:36.788Z,24.77
2024-05-09T08:28:36.737Z,24.76
2024-05-09T08:29:36.704Z,24.72
2024-05-09T08:30:38.107Z,24.71
2024-05-09T08:31:36.681Z,24.68
2024-05-09T08:32:36.815Z,24.69
2024-05-09T08:33:37.056Z,24.66
2024-05-09T08:34:36.618Z,24.63
2024-05-09T08:35:36.568Z,24.62
2024-05-09T08:36:36.576Z,24.60
2024-05-09T08:37:38.929Z,24.60
2024-05-09T08:38:36.491Z,24.59
2024-05-09T08:39:36.491Z,24.57
2024-05-09T08:40:37.876Z,24.55
2024-05-09T08:41:36.435Z,24.55
2024-05-09T08:42:36.445Z,24.59
2024-05-09T08:43:38.218Z,24.60
2024-05-09T08:44:36.386Z,24.60
2024-05-09T08:45:36.393Z,24.64
2024-05-09T08:46:36.383Z,24.69
2024-05-09T08:47:36.377Z,24.75
2024-05-09T08:48:36.502Z,24.78
2024-05-09T08:49:37.663Z,24.82
2024-05-09T08:50:39.112Z,24.83
2024-05-09T08:51:36.342Z,24.85
2024-05-09T08:52:36.238Z,24.88
2024-05-09T08:53:36.257Z,24.86
2024-05-09T08:54:36.230Z,24.84
2024-05-09T08:55:38.142Z,24.84
2024-05-09T08:56:36.895Z,24.87
2024-05-09T08:57:36.187Z,24.87
2024-05-09T08:58:36.111Z,24.85
2024-05-09T08:59:36.099Z,24.82
2024-05-09T09:00:37.594Z,24.82
2024-05-09T09:01:37.779Z,24.80
2024-05-09T09:02:36.194Z,24.79
2024-05-09T09:03:36.345Z,24.78
2024-05-09T09:04:36.098Z,24.81
2024-05-09T09:05:36.065Z,24.83
2024-05-09T09:06:36.025Z,24.84
2024-05-09T09:07:35.989Z,24.86
2024-05-09T09:08:35.956Z,24.86
2024-05-09T09:09:35.958Z,24.86
2024-05-09T09:10:36.107Z,24.88
2024-05-09T09:11:35.941Z,24.87
2024-05-09T09:12:35.919Z,24.88
2024-05-09T09:13:35.861Z,24.89
2024-05-09T09:14:35.839Z,24.91
2024-05-09T09:15:35.868Z,24.92
2024-05-09T09:16:35.804Z,24.91
2024-05-09T09:17:35.839Z,24.89
2024-05-09T09:18:36.032Z,24.90
2024-05-09T09:19:35.846Z,24.92
2024-05-09T09:20:37.056Z,24.92
2024-05-09T09:21:35.764Z,24.91
2024-05-09T09:22:35.659Z,24.91
2024-05-09T09:23:35.640Z,24.90
2024-05-09T09:24:35.645Z,24.91
2024-05-09T09:25:35.614Z,24.90
2024-05-09T09:26:35.595Z,24.92
2024-05-09T09:27:35.605Z,24.93
2024-05-09T09:28:35.556Z,24.93
2024-05-09T09:29:35.531Z,24.94
2024-05-09T09:30:37.945Z,24.95
2024-05-09T09:31:35.581Z,24.96
2024-05-09T09:32:35.504Z,24.94
2024-05-09T09:33:36.025Z,24.96
2024-05-09T09:34:35.462Z,24.95
2024-05-09T09:35:35.387Z,24.97
2024-05-09T09:36:35.397Z,24.97
2024-05-09T09:37:35.346Z,24.98
2024-05-09T09:38:35.326Z,24.99
2024-05-09T09:39:35.381Z,24.99
2024-05-09T09:40:38.714Z,25.00
2024-05-09T09:41:36.272Z,24.99
2024-05-09T09:42:35.270Z,25.00
2024-05-09T09:43:35.219Z,25.01
2024-05-09T09:44:37.360Z,25.00
2024-05-09T09:45:35.181Z,25.01
2024-05-09T09:46:35.187Z,25.02
2024-05-09T09:47:35.256Z,25.03
2024-05-09T09:48:35.251Z,25.04
2024-05-09T09:49:35.084Z,25.04
2024-05-09T09:50:35.431Z,25.05
2024-05-09T09:51:34.984Z,25.06
2024-05-09T09:52:34.961Z,25.06
2024-05-09T09:53:34.946Z,25.07
2024-05-09T09:54:34.982Z,25.06
2024-05-09T09:55:34.909Z,25.07
2024-05-09T09:56:34.898Z,25.07
2024-05-09T09:57:34.906Z,25.08
2024-05-09T09:58:34.906Z,25.08
2024-05-09T09:59:34.814Z,25.08
2024-05-09T10:00:34.832Z,25.09
2024-05-09T10:01:34.906Z,25.09
2024-05-09T10:02:34.771Z,25.10
2024-05-09T10:03:34.904Z,25.10
2024-05-09T10:04:34.774Z,25.10
2024-05-09T10:05:34.880Z,25.11
2024-05-09T10:06:34.704Z,25.11
2024-05-09T10:07:34.633Z,25.11
2024-05-09T10:08:34.626Z,25.11
2024-05-09T10:09:35.441Z,25.11
2024-05-09T10:10:34.925Z,25.12
2024-05-09T10:11:41.879Z,25.12
2024-05-09T10:12:35.912Z,25.12
2024-05-09T10:13:34.959Z,25.13
2024-05-09T10:14:34.709Z,25.13
2024-05-09T10:15:34.744Z,25.14
2024-05-09T10:16:34.703Z,25.13
2024-05-09T10:17:34.806Z,25.14
2024-05-09T10:18:34.819Z,25.14
2024-05-09T10:19:34.725Z,25.15
2024-05-09T10:20:34.710Z,25.14
2024-05-09T10:21:34.770Z,25.14
2024-05-09T10:22:34.770Z,25.14
2024-05-09T10:23:34.856Z,25.14
2024-05-09T10:24:34.872Z,25.13
2024-05-09T10:25:34.904Z,25.12
2024-05-09T10:26:34.918Z,25.11
2024-05-09T10:27:35.005Z,25.10
2024-05-09T10:28:35.058Z,25.09
2024-05-09T10:29:35.049Z,25.09
2024-05-09T10:30:36.371Z,25.09
2024-05-09T10:31:35.165Z,25.08
2024-05-09T10:32:35.214Z,25.08
2024-05-09T10:33:35.390Z,25.09
2024-05-09T10:34:35.362Z,25.08
2024-05-09T10:35:35.268Z,25.09
2024-05-09T10:36:35.330Z,25.09
2024-05-09T10:37:35.403Z,25.09
2024-05-09T10:38:35.397Z,25.08
2024-05-09T10:39:35.454Z,25.08
2024-05-09T10:40:35.491Z,25.08
2024-05-09T10:41:35.527Z,25.07
2024-05-09T10:42:35.569Z,25.07
2024-05-09T10:43:35.623Z,25.08
2024-05-09T10:44:35.650Z,25.07
2024-05-09T10:45:35.732Z,25.08
2024-05-09T10:46:35.710Z,25.08
2024-05-09T10:47:35.827Z,25.07
2024-05-09T10:48:35.869Z,25.08
2024-05-09T10:49:35.826Z,25.07
2024-05-09T10:50:35.914Z,25.08
2024-05-09T10:51:35.938Z,25.07
2024-05-09T10:52:35.932Z,25.07
2024-05-09T10:53:35.982Z,25.06
2024-05-09T10:54:36.032Z,25.07
2024-05-09T10:55:36.023Z,25.05
2024-05-09T10:56:36.031Z,25.05
2024-05-09T10:57:36.061Z,25.04
2024-05-09T10:58:36.075Z,25.04
2024-05-09T10:59:36.085Z,25.04
2024-05-09T11:00:36.803Z,25.03
2024-05-09T11:01:36.216Z,25.02
2024-05-09T11:02:36.274Z,25.01
2024-05-09T11:03:36.566Z,25.01
2024-05-09T11:04:36.266Z,25.00
2024-05-09T11:05:36.491Z,24.99
2024-05-09T11:06:36.314Z,24.98
2024-05-09T11:07:36.258Z,24.98
2024-05-09T11:08:36.297Z,24.97
2024-05-09T11:09:36.354Z,24.97
2024-05-09T11:10:36.411Z,24.95
2024-05-09T11:11:36.455Z,24.95
2024-05-09T11:12:36.505Z,24.95
2024-05-09T11:13:36.590Z,24.94
2024-05-09T11:14:36.603Z,24.94
2024-05-09T11:15:36.655Z,24.94
2024-05-09T11:16:36.667Z,24.93
2024-05-09T11:17:36.808Z,24.93
2024-05-09T11:18:39.036Z,24.93
2024-05-09T11:19:36.855Z,24.92
2024-05-09T11:20:37.047Z,24.91
2024-05-09T11:21:36.755Z,24.91
2024-05-09T11:22:36.761Z,24.91
2024-05-09T11:23:36.725Z,24.91
2024-05-09T11:24:36.721Z,24.90
2024-05-09T11:25:36.675Z,24.90
2024-05-09T11:26:36.655Z,24.89
2024-05-09T11:27:36.670Z,24.89
2024-05-09T11:28:36.639Z,24.88
2024-05-09T11:29:36.615Z,24.88
2024-05-09T11:30:36.630Z,24.88
2024-05-09T11:31:36.703Z,24.88
2024-05-09T11:32:36.667Z,24.88
2024-05-09T11:33:36.733Z,24.86
2024-05-09T11:34:36.567Z,24.87
2024-05-09T11:35:36.491Z,24.85
2024-05-09T11:36:36.516Z,24.85
2024-05-09T11:37:37.266Z,24.84
2024-05-09T11:38:36.453Z,24.84
2024-05-09T11:39:36.478Z,24.84
2024-05-09T11:40:36.501Z,24.83
2024-05-09T11:41:36.421Z,24.83
2024-05-09T11:42:36.417Z,24.83
2024-05-09T11:43:36.398Z,24.83
2024-05-09T11:44:36.389Z,24.82
2024-05-09T11:45:36.377Z,24.82
2024-05-09T11:46:36.344Z,24.82
2024-05-09T11:47:36.400Z,24.81
2024-05-09T11:48:36.446Z,24.81
2024-05-09T11:49:36.343Z,24.81
2024-05-09T11:50:36.507Z,24.80
2024-05-09T11:51:36.292Z,24.80
2024-05-09T11:52:36.249Z,24.80
2024-05-09T11:53:36.247Z,24.79
2024-05-09T11:54:36.266Z,24.80
2024-05-09T11:55:36.291Z,24.80
2024-05-09T11:56:36.175Z,24.79
2024-05-09T11:57:36.195Z,24.79
2024-05-09T11:58:36.142Z,24.79
2024-05-09T11:59:36.145Z,24.79
2024-05-09T12:00:37.516Z,24.79
2024-05-09T12:01:36.258Z,24.78
2024-05-09T12:02:36.195Z,24.78
2024-05-09T12:03:36.240Z,24.78
2024-05-09T12:04:36.303Z,24.78
2024-05-09T12:05:36.386Z,24.77
2024-05-09T12:06:36.321Z,24.77
2024-05-09T12:07:36.292Z,24.77
2024-05-09T12:08:36.360Z,24.77
2024-05-09T12:09:36.386Z,24.77
2024-05-09T12:10:37.113Z,24.76
2024-05-09T12:11:36.484Z,24.76
2024-05-09T12:12:37.419Z,24.76
2024-05-09T12:13:36.586Z,24.76
2024-05-09T12:14:36.562Z,24.75
2024-05-09T12:15:37.644Z,24.75
2024-05-09T12:16:36.723Z,24.75
2024-05-09T12:17:36.741Z,24.75
2024-05-09T12:18:36.723Z,24.75
2024-05-09T12:19:36.775Z,24.75
2024-05-09T12:20:39.381Z,24.74
2024-05-09T12:21:36.768Z,24.74
2024-05-09T12:22:36.716Z,24.74
2024-05-09T12:23:36.693Z,24.74
2024-05-09T12:24:36.719Z,24.74
2024-05-09T12:25:36.655Z,24.74
2024-05-09T12:26:36.637Z,24.73
2024-05-09T12:27:36.694Z,24.74
2024-05-09T12:28:36.619Z,24.73
2024-05-09T12:29:38.810Z,24.73
2024-05-09T12:30:39.662Z,24.73
2024-05-09T12:31:36.621Z,24.72
2024-05-09T12:32:36.631Z,24.72
2024-05-09T12:33:36.657Z,24.72
2024-05-09T12:34:36.611Z,24.73
2024-05-09T12:35:36.590Z,24.73
2024-05-09T12:36:36.551Z,24.73
2024-05-09T12:37:36.501Z,24.73
2024-05-09T12:38:36.487Z,24.72
2024-05-09T12:39:36.502Z,24.73
2024-05-09T12:40:38.547Z,24.73
2024-05-09T12:41:36.424Z,24.73
2024-05-09T12:42:36.450Z,24.72
2024-05-09T12:43:36.433Z,24.72
2024-05-09T12:44:36.365Z,24.73
2024-05-09T12:45:36.476Z,24.72
2024-05-09T12:46:36.347Z,24.72
2024-05-09T12:47:36.378Z,24.72
2024-05-09T12:48:36.522Z,24.72
2024-05-09T12:49:36.455Z,24.72
2024-05-09T12:50:36.903Z,24.71
2024-05-09T12:51:36.336Z,24.71
2024-05-09T12:52:36.245Z,24.71
2024-05-09T12:53:36.237Z,24.70
2024-05-09T12:54:36.259Z,24.71
2024-05-09T12:55:44.096Z,24.71
2024-05-09T12:56:37.204Z,24.70
2024-05-09T12:57:36.205Z,24.70